Friday, May 25, 2018, 8:35 PM EDT
Back to Local

KTEB, Teterboro Airport

Location: South Hackensack, NJ, United States Lat: 40.867
Local Time: 8:35 PM EDT ( 0:35 GMT) Lon: -74.05
Time Zone: US/Eastern Elev: 9 ft

Show me the last for .
Show Decoded

2018-05-25 19:51 METAR KTEB 252351Z 24010KT 10SM CLR 29/14 A2981 RMK AO2 SLP095 T02940139 10322
                 20294 55006 =
2018-05-25 18:51 METAR KTEB 252251Z 26011G16KT 10SM CLR 31/12 A2981 RMK AO2 SLP093 T03060117 =
2018-05-25 17:51 METAR KTEB 252151Z 25013G22KT 10SM CLR 31/12 A2982 RMK AO2 SLP096 T03060117 =
2018-05-25 16:51 METAR KTEB 252051Z 25014G22KT 10SM CLR 31/13 A2983 RMK AO2 SLP101 T03060128
                 58023 =
2018-05-25 15:51 METAR KTEB 251951Z 22013G18KT 10SM CLR 31/12 A2986 RMK AO2 SLP110 T03110122 =
2018-05-25 14:51 METAR KTEB 251851Z 24012G21KT 10SM CLR 31/11 A2988 RMK AO2 SLP119 T03060111 =
2018-05-25 13:51 METAR KTEB 251751Z 24010G20KT 10SM CLR 29/10 A2990 RMK AO2 SLP125 T02940100
                 10317 20206 58023 =
2018-05-25 12:51 METAR KTEB 251651Z 22010G21KT 180V240 10SM CLR 30/09 A2992 RMK AO2 SLP132
                 T03000089 =
2018-05-25 11:51 METAR KTEB 251551Z 24012KT 10SM CLR 29/11 A2995 RMK AO2 SLP141 T02890106 =
2018-05-25 10:51 METAR KTEB 251451Z 27010G15KT 10SM CLR 28/11 A2997 RMK AO2 SLP148 T02830111
                 58021 =
2018-05-25 09:51 METAR KTEB 251351Z 25007KT 10SM CLR 27/11 A2999 RMK AO2 SLP156 T02670106 =
2018-05-25 08:51 METAR KTEB 251251Z 18004KT 10SM CLR 23/13 A3002 RMK AO2 SLP164 T02330128 =
2018-05-25 07:51 METAR KTEB 251151Z 21006KT 10SM CLR 21/12 A3003 RMK AO2 SLP169 T02060122 10206
                 20156 58001 =
2018-05-25 06:51 METAR KTEB 251051Z 00000KT 10SM CLR 18/13 A3004 RMK AO2 SLP172 T01780128 =
2018-05-25 05:51 METAR KTEB 250951Z 21003KT 10SM CLR 16/11 A3004 RMK AO2 SLP174 T01610111 =
2018-05-25 04:51 METAR KTEB 250851Z 00000KT 10SM CLR 17/11 A3003 RMK AO2 SLP170 T01720106 56009 =
2018-05-25 03:51 METAR KTEB 250751Z 00000KT 10SM CLR 17/11 A3004 RMK AO2 SLP173 T01670106 =
2018-05-25 02:51 METAR KTEB 250651Z 22003KT 10SM CLR 18/10 A3005 RMK AO2 SLP175 T01780100 =
2018-05-25 01:51 METAR KTEB 250551Z 19004KT 10SM CLR 19/09 A3006 RMK AO2 SLP180 T01890094 10250
                 20189 58002 =
2018-05-25 00:51 METAR KTEB 250451Z 19004KT 10SM CLR 19/09 A3007 RMK AO2 SLP183 T01940094
                 403000167 =
2018-05-24 23:51 METAR KTEB 250351Z 18005KT 10SM CLR 21/08 A3007 RMK AO2 SLP183 T02060083 =
2018-05-24 22:51 METAR KTEB 250251Z 20008KT 10SM CLR 22/08 A3007 RMK AO2 SLP182 T02170078 51009 =
2018-05-24 21:51 METAR KTEB 250151Z 19007KT 10SM CLR 22/07 A3007 RMK AO2 SLP182 T02220072 =
2018-05-24 20:51 METAR KTEB 250051Z 19007KT 10SM CLR 23/09 A3005 RMK AO2 SLP176 T02330089 =

Support USWX by starting your Amazon purchase here.